Time;durP1;ratioP1;P1;durP2;ratioP2;P2;SDS_P1;SDS_P2;PMS_P1;PMS_P2;Temp;Humidity;BMP_temperature;BMP_pressure;BME280_temperature;BME280_humidity;BME280_pressure;Samples;Min_cycle;Max_cycle;Signal;HPM_P1;HPM_P2
2021/11/07 00:04:17;;;;;;;22.23;16.85;;;10.00;86.40;;;;;;5028513;28;20038;-51
2021/11/07 00:07:29;;;;;;;26.17;17.57;;;10.00;88.20;;;;;;5033544;28;20391;-51
2021/11/07 00:12:27;;;;;;;20.25;16.00;;;10.00;88.30;;;;;;5029733;28;20373;-53
2021/11/07 00:14:56;;;;;;;21.27;15.63;;;9.90;87.90;;;;;;5019790;28;20033;-54
2021/11/07 00:17:26;;;;;;;22.07;15.60;;;9.80;87.20;;;;;;5025674;28;20032;-54
2021/11/07 00:20:17;;;;;;;19.30;15.57;;;9.80;87.70;;;;;;5030870;28;20573;-53
2021/11/07 00:23:14;;;;;;;21.50;15.48;;;9.90;86.40;;;;;;5026040;28;20037;-55
2021/11/07 00:25:47;;;;;;;20.90;15.27;;;9.90;85.80;;;;;;5032832;28;20025;-55
2021/11/07 00:28:30;;;;;;;20.55;15.18;;;9.90;86.00;;;;;;5029556;28;20037;-55
2021/11/07 00:33:43;;;;;;;20.23;14.37;;;9.80;84.10;;;;;;5025747;28;20037;-53
2021/11/07 00:38:53;;;;;;;21.13;13.57;;;9.80;85.10;;;;;;5033956;28;20034;-52
2021/11/07 00:41:26;;;;;;;21.00;14.40;;;9.70;84.50;;;;;;5029671;28;20041;-50
2021/11/07 00:49:32;;;;;;;21.45;13.85;;;9.70;85.10;;;;;;5043652;28;20033;-51
2021/11/07 00:56:37;;;;;;;18.83;12.80;;;9.30;79.60;;;;;;5022553;28;20113;-52
2021/11/07 00:59:10;;;;;;;18.53;14.17;;;9.60;77.80;;;;;;5030140;28;20067;-53
2021/11/07 01:01:40;;;;;;;21.53;13.60;;;9.60;72.40;;;;;;5031291;28;20052;-51
2021/11/07 01:04:10;;;;;;;16.88;13.13;;;9.60;71.90;;;;;;5029317;28;20033;-51
2021/11/07 01:06:41;;;;;;;19.73;13.30;;;9.60;71.50;;;;;;5028192;28;20029;-51
2021/11/07 01:09:08;;;;;;;14.67;12.37;;;9.60;70.30;;;;;;5032101;28;20026;-51
2021/11/07 01:11:33;;;;;;;18.52;13.13;;;9.60;70.70;;;;;;5029651;28;20120;-51
2021/11/07 01:13:59;;;;;;;16.60;12.23;;;9.40;69.40;;;;;;5029065;28;20471;-56
2021/11/07 01:16:25;;;;;;;19.53;13.00;;;9.30;67.20;;;;;;5031689;28;20034;-55
2021/11/07 01:18:54;;;;;;;18.17;12.90;;;9.20;66.80;;;;;;5032750;28;20026;-55
2021/11/07 01:21:19;;;;;;;16.42;12.52;;;9.30;67.10;;;;;;5031568;28;20047;-53
2021/11/07 01:24:34;;;;;;;15.43;11.53;;;9.40;67.70;;;;;;5026664;28;20449;-54
2021/11/07 01:26:43;;;;;;;15.33;11.33;;;9.30;65.00;;;;;;5022146;28;20082;-56
2021/11/07 01:29:19;;;;;;;15.10;10.93;;;9.20;67.90;;;;;;5029419;28;20144;-57
2021/11/07 01:31:47;;;;;;;14.27;11.27;;;9.20;66.90;;;;;;5030018;28;20492;-55
2021/11/07 01:34:36;;;;;;;13.00;10.43;;;9.30;69.40;;;;;;5026313;28;20036;-52
2021/11/07 01:37:15;;;;;;;12.80;11.07;;;9.40;70.50;;;;;;5031106;28;20126;-51
2021/11/07 01:42:33;;;;;;;13.88;10.57;;;9.40;72.60;;;;;;5038762;28;20159;-51
2021/11/07 01:45:06;;;;;;;14.17;10.50;;;9.30;73.00;;;;;;5032615;28;20021;-52
2021/11/07 01:47:37;;;;;;;12.30;10.40;;;9.20;73.50;;;;;;5029953;28;20029;-52
2021/11/07 01:50:06;;;;;;;15.87;10.10;;;9.30;74.40;;;;;;5021334;28;20021;-55
2021/11/07 01:52:37;;;;;;;12.70;10.20;;;9.20;75.00;;;;;;5030316;28;20091;-56
2021/11/07 01:55:05;;;;;;;11.87;9.83;;;9.20;75.80;;;;;;5034440;28;20034;-54
2021/11/07 01:57:33;;;;;;;14.27;10.27;;;9.20;77.80;;;;;;5031593;28;20029;-54
2021/11/07 02:00:08;;;;;;;12.70;9.60;;;9.10;79.40;;;;;;5021860;28;20475;-52
2021/11/07 02:02:35;;;;;;;13.88;10.07;;;9.20;91.40;;;;;;5033176;28;20029;-53
2021/11/07 02:05:03;;;;;;;12.93;9.77;;;9.20;86.50;;;;;;5033437;28;20025;-51
2021/11/07 02:07:30;;;;;;;13.70;9.30;;;9.30;82.30;;;;;;5031163;28;20021;-52
2021/11/07 02:09:55;;;;;;;11.88;8.77;;;9.20;78.90;;;;;;5027048;28;20021;-53
2021/11/07 02:12:21;;;;;;;12.57;8.37;;;9.30;77.80;;;;;;5037827;28;20164;-51
2021/11/07 02:14:47;;;;;;;10.63;8.60;;;9.20;75.70;;;;;;5024526;28;20030;-55
2021/11/07 02:17:13;;;;;;;12.13;8.73;;;9.20;75.40;;;;;;5040490;28;20025;-53
2021/11/07 02:19:44;;;;;;;15.00;8.43;;;9.30;74.70;;;;;;5032136;28;20022;-51
2021/11/07 02:22:10;;;;;;;11.20;8.57;;;9.20;73.40;;;;;;5030296;28;20041;-51
2021/11/07 02:24:39;;;;;;;11.13;8.43;;;9.20;73.70;;;;;;5032878;28;20040;-53
2021/11/07 02:27:05;;;;;;;11.70;8.20;;;9.20;73.10;;;;;;5034523;28;20036;-51
2021/11/07 02:29:32;;;;;;;10.65;7.60;;;9.20;70.90;;;;;;5034865;28;20021;-51
2021/11/07 02:31:58;;;;;;;11.30;8.63;;;9.20;71.30;;;;;;5034177;28;20021;-51
2021/11/07 02:34:26;;;;;;;11.17;7.97;;;9.20;70.90;;;;;;5045666;28;20436;-52
2021/11/07 02:36:52;;;;;;;11.63;7.83;;;9.10;70.80;;;;;;5034806;28;20109;-54
2021/11/07 02:39:20;;;;;;;8.67;7.67;;;9.10;70.40;;;;;;5032104;28;20083;-51
2021/11/07 02:41:47;;;;;;;11.10;7.85;;;9.10;69.00;;;;;;5032470;28;20041;-54
2021/11/07 02:44:30;;;;;;;11.57;7.93;;;9.10;69.10;;;;;;5027216;28;20084;-54
2021/11/07 02:47:07;;;;;;;11.20;7.50;;;9.20;68.10;;;;;;5030521;28;20021;-53
2021/11/07 02:49:34;;;;;;;9.77;7.20;;;9.20;68.20;;;;;;5031210;28;20120;-51
2021/11/07 02:52:01;;;;;;;8.80;7.07;;;9.20;67.80;;;;;;5029797;28;20034;-55
2021/11/07 02:54:27;;;;;;;9.43;7.50;;;9.20;67.80;;;;;;5033545;28;20025;-51
2021/11/07 02:56:55;;;;;;;13.53;7.43;;;9.20;68.80;;;;;;5034998;28;20039;-52
2021/11/07 02:59:23;;;;;;;13.17;7.23;;;9.10;67.40;;;;;;5031208;28;20071;-54
2021/11/07 03:01:50;;;;;;;13.90;7.83;;;9.20;67.80;;;;;;5031923;28;20041;-53
2021/11/07 03:04:16;;;;;;;9.83;7.80;;;9.20;68.00;;;;;;5043119;28;20033;-55
2021/11/07 03:06:43;;;;;;;8.57;7.60;;;9.20;67.80;;;;;;5032684;28;20094;-52
2021/11/07 03:09:27;;;;;;;8.00;6.83;;;9.20;68.30;;;;;;5029741;28;20059;-53
2021/11/07 03:11:54;;;;;;;10.27;7.18;;;9.20;68.50;;;;;;5032142;28;20060;-52
2021/11/07 03:14:27;;;;;;;10.23;7.43;;;9.10;67.20;;;;;;5032941;28;20515;-52
2021/11/07 03:16:54;;;;;;;11.77;7.73;;;9.20;68.00;;;;;;5031429;28;20368;-52
2021/11/07 03:19:22;;;;;;;9.30;7.40;;;9.20;67.20;;;;;;5032472;28;20483;-53
2021/11/07 03:21:50;;;;;;;11.83;7.33;;;9.10;67.30;;;;;;5031620;28;20395;-51
2021/11/07 03:24:18;;;;;;;9.57;7.33;;;9.10;67.30;;;;;;5038281;28;20076;-50
2021/11/07 03:26:44;;;;;;;8.53;7.00;;;9.00;67.20;;;;;;5027962;28;20168;-51
2021/11/07 03:29:11;;;;;;;9.37;7.10;;;9.10;66.50;;;;;;5032451;28;20026;-52
2021/11/07 03:34:18;;;;;;;7.80;6.40;;;9.00;66.80;;;;;;5032293;28;20029;-50
2021/11/07 03:36:50;;;;;;;9.27;6.57;;;9.00;66.00;;;;;;5032433;28;20033;-51
2021/11/07 03:39:16;;;;;;;7.43;5.93;;;9.00;65.30;;;;;;5037615;28;20025;-55
2021/11/07 03:42:06;;;;;;;9.73;6.53;;;8.90;64.90;;;;;;5034005;28;20037;-55
2021/11/07 03:44:31;;;;;;;9.03;6.00;;;9.00;64.40;;;;;;5028288;28;20009;-51
2021/11/07 03:46:57;;;;;;;6.77;5.83;;;9.00;64.00;;;;;;5031716;28;20030;-55
2021/11/07 03:49:23;;;;;;;8.43;5.83;;;8.90;63.90;;;;;;5030723;28;20167;-53
2021/11/07 03:51:50;;;;;;;7.50;5.80;;;8.90;62.20;;;;;;5031228;28;20044;-52
2021/11/07 03:54:18;;;;;;;7.87;5.83;;;8.90;63.00;;;;;;5031762;28;20549;-52
2021/11/07 03:56:43;;;;;;;6.93;4.80;;;8.90;61.70;;;;;;5033237;28;20076;-53
2021/11/07 03:59:09;;;;;;;6.27;5.03;;;9.00;61.80;;;;;;5036019;28;20033;-54
2021/11/07 04:01:36;;;;;;;7.40;5.07;;;9.00;61.40;;;;;;5031464;28;20099;-51
2021/11/07 04:04:04;;;;;;;6.13;4.43;;;8.90;61.70;;;;;;5037147;28;20394;-54
2021/11/07 04:06:29;;;;;;;7.23;4.83;;;8.90;61.70;;;;;;5034384;28;20117;-55
2021/11/07 04:08:56;;;;;;;5.50;4.40;;;8.80;60.80;;;;;;5030352;28;20112;-52
2021/11/07 04:11:22;;;;;;;6.27;4.73;;;8.80;61.20;;;;;;5032311;28;20060;-52
2021/11/07 04:13:48;;;;;;;5.83;4.00;;;8.90;61.60;;;;;;5033631;28;20455;-52
2021/11/07 04:16:14;;;;;;;5.43;4.00;;;8.90;60.50;;;;;;5032680;28;20533;-52
2021/11/07 04:18:43;;;;;;;6.13;4.80;;;8.90;62.10;;;;;;5030105;28;20083;-51
2021/11/07 04:21:08;;;;;;;5.97;4.63;;;9.00;63.20;;;;;;5037441;28;20061;-52
2021/11/07 04:23:35;;;;;;;6.47;4.40;;;8.90;62.70;;;;;;5026490;28;20065;-52
2021/11/07 04:26:01;;;;;;;6.03;4.57;;;8.90;63.60;;;;;;5027413;28;20037;-52
2021/11/07 04:28:28;;;;;;;6.17;4.43;;;8.90;63.30;;;;;;5032503;28;20037;-54
2021/11/07 04:30:55;;;;;;;7.73;4.97;;;9.00;64.00;;;;;;5032862;28;20025;-50
2021/11/07 04:33:22;;;;;;;8.40;5.13;;;9.00;63.30;;;;;;5026679;28;20041;-52
2021/11/07 04:35:48;;;;;;;7.57;5.13;;;9.00;65.20;;;;;;5030504;28;20356;-51
2021/11/07 04:38:15;;;;;;;6.83;4.83;;;9.00;64.60;;;;;;5030043;28;20029;-52
2021/11/07 04:40:41;;;;;;;7.13;5.20;;;9.00;64.00;;;;;;5035577;28;20445;-55
2021/11/07 04:43:08;;;;;;;6.10;4.90;;;9.00;64.90;;;;;;5031445;28;20406;-51
2021/11/07 04:45:34;;;;;;;6.63;5.40;;;9.10;64.60;;;;;;5030408;28;20083;-53
2021/11/07 04:48:02;;;;;;;10.00;5.93;;;9.10;64.40;;;;;;5026753;28;20041;-52
2021/11/07 04:50:27;;;;;;;7.93;5.03;;;9.10;64.80;;;;;;5028920;28;20044;-50
2021/11/07 04:52:54;;;;;;;7.43;5.67;;;9.10;63.80;;;;;;5030728;28;20037;-54
2021/11/07 04:55:19;;;;;;;7.57;5.30;;;9.10;65.30;;;;;;5029871;28;20017;-55
2021/11/07 04:57:45;;;;;;;6.50;4.93;;;9.10;65.40;;;;;;5030825;28;20155;-52
2021/11/07 05:00:15;;;;;;;7.17;5.50;;;9.10;65.10;;;;;;5025603;28;20068;-53
2021/11/07 05:02:41;;;;;;;6.60;5.07;;;9.10;64.90;;;;;;5030513;28;20615;-50
2021/11/07 05:05:07;;;;;;;6.43;5.40;;;9.10;64.70;;;;;;5028749;28;20025;-51
2021/11/07 05:07:33;;;;;;;7.40;5.50;;;9.10;65.30;;;;;;5031431;28;20391;-51
2021/11/07 05:09:59;;;;;;;7.90;5.13;;;9.00;64.80;;;;;;5042277;28;20040;-54
2021/11/07 05:12:25;;;;;;;5.77;4.77;;;9.00;63.40;;;;;;5033069;28;20037;-50
2021/11/07 05:14:51;;;;;;;6.07;4.60;;;9.00;63.60;;;;;;5027493;28;20555;-53
2021/11/07 05:17:17;;;;;;;6.30;4.43;;;8.90;62.20;;;;;;5027710;28;20070;-51
2021/11/07 05:19:43;;;;;;;5.87;4.37;;;8.90;63.80;;;;;;5026134;28;20065;-54
2021/11/07 05:22:09;;;;;;;5.03;4.47;;;8.90;64.40;;;;;;5029916;28;20094;-54
2021/11/07 05:24:35;;;;;;;5.97;4.87;;;9.00;63.50;;;;;;5025314;28;20030;-51
2021/11/07 05:27:01;;;;;;;6.87;5.10;;;8.90;64.10;;;;;;5031387;28;20335;-54
2021/11/07 05:29:27;;;;;;;7.73;5.00;;;8.90;62.30;;;;;;5034004;28;20171;-52
2021/11/07 05:31:52;;;;;;;6.23;4.90;;;8.90;63.80;;;;;;5033889;28;20116;-55
2021/11/07 05:34:18;;;;;;;5.53;4.67;;;8.90;63.20;;;;;;5033135;28;20021;-49
2021/11/07 05:36:45;;;;;;;7.23;4.60;;;8.90;63.40;;;;;;5032909;28;20040;-56
2021/11/07 05:39:11;;;;;;;6.17;4.80;;;8.80;65.90;;;;;;5035000;28;20389;-53
2021/11/07 05:41:37;;;;;;;7.47;4.50;;;8.70;62.70;;;;;;5032558;28;20179;-51
2021/11/07 05:44:03;;;;;;;4.83;4.33;;;8.70;62.10;;;;;;5040500;28;20535;-54
2021/11/07 05:46:29;;;;;;;5.70;4.73;;;8.60;61.80;;;;;;5033311;28;20443;-51
2021/11/07 05:48:55;;;;;;;7.03;4.80;;;8.70;61.60;;;;;;5034534;28;20075;-51
2021/11/07 05:51:21;;;;;;;7.73;5.20;;;8.60;61.60;;;;;;5032843;28;20372;-56
2021/11/07 05:53:47;;;;;;;5.97;4.17;;;8.60;61.70;;;;;;5033578;28;20494;-53
2021/11/07 05:56:12;;;;;;;5.00;3.80;;;8.60;61.30;;;;;;5045036;28;20387;-53
2021/11/07 05:58:38;;;;;;;4.53;3.90;;;8.50;60.60;;;;;;5029288;28;20031;-50
2021/11/07 06:01:04;;;;;;;4.77;3.77;;;8.50;61.10;;;;;;5041091;28;20476;-51
2021/11/07 06:03:30;;;;;;;7.43;3.97;;;8.60;67.00;;;;;;5032623;28;20092;-53
2021/11/07 06:05:55;;;;;;;4.30;3.57;;;8.60;68.00;;;;;;5030645;28;20060;-54
2021/11/07 06:08:21;;;;;;;6.03;3.53;;;8.70;67.10;;;;;;5034883;28;20045;-51
2021/11/07 06:10:47;;;;;;;4.40;3.53;;;8.60;66.10;;;;;;5033518;28;20120;-50
2021/11/07 06:13:13;;;;;;;3.83;3.40;;;8.60;67.10;;;;;;5036385;28;20029;-52
2021/11/07 06:15:40;;;;;;;4.20;3.40;;;8.70;66.20;;;;;;5027624;28;20041;-52
2021/11/07 06:18:07;;;;;;;5.10;3.80;;;8.70;66.40;;;;;;5032717;28;20040;-51
2021/11/07 06:20:33;;;;;;;4.80;3.23;;;8.40;60.30;;;;;;5029039;28;20495;-52
2021/11/07 06:23:01;;;;;;;3.87;3.17;;;8.40;59.50;;;;;;5034456;28;20081;-55
2021/11/07 06:25:30;;;;;;;6.07;3.63;;;8.40;59.60;;;;;;5028749;28;20456;-52
2021/11/07 06:27:55;;;;;;;3.90;3.20;;;8.40;60.60;;;;;;5030489;28;20037;-50
2021/11/07 06:30:21;;;;;;;4.27;3.03;;;8.50;59.20;;;;;;5035862;28;20052;-49
2021/11/07 06:32:47;;;;;;;5.83;3.47;;;8.40;60.20;;;;;;5032753;28;20033;-54
2021/11/07 06:35:13;;;;;;;3.97;3.23;;;8.40;59.80;;;;;;5032490;28;20494;-51
2021/11/07 06:37:40;;;;;;;5.47;3.60;;;8.50;60.40;;;;;;5031844;28;20037;-50
2021/11/07 06:40:08;;;;;;;4.13;3.13;;;8.40;58.30;;;;;;5031806;28;20052;-51
2021/11/07 06:42:34;;;;;;;4.30;3.33;;;8.50;60.90;;;;;;5035973;28;20044;-49
2021/11/07 06:45:00;;;;;;;6.93;4.20;;;8.60;61.20;;;;;;5031613;28;20034;-51
2021/11/07 06:47:26;;;;;;;6.23;3.83;;;8.60;60.00;;;;;;5030301;28;20087;-53
2021/11/07 06:49:53;;;;;;;5.33;3.50;;;8.60;61.20;;;;;;5030926;28;20081;-52
2021/11/07 06:52:19;;;;;;;4.47;3.17;;;8.60;61.40;;;;;;5030110;28;20068;-51
2021/11/07 06:54:45;;;;;;;5.93;3.70;;;8.70;61.90;;;;;;5032494;28;20052;-50
2021/11/07 06:57:11;;;;;;;5.90;4.00;;;8.80;60.40;;;;;;5031329;28;20037;-54
2021/11/07 06:59:37;;;;;;;4.13;3.30;;;8.80;60.30;;;;;;5022448;28;20056;-49
2021/11/07 07:02:03;;;;;;;4.30;3.50;;;8.80;60.90;;;;;;5034662;28;20152;-51
2021/11/07 07:04:28;;;;;;;4.90;3.33;;;8.70;60.20;;;;;;5027625;28;20037;-50
2021/11/07 07:06:54;;;;;;;5.37;4.00;;;8.70;59.10;;;;;;5036232;28;20080;-50
2021/11/07 07:09:26;;;;;;;5.63;3.97;;;8.70;59.30;;;;;;5032408;28;20033;-48
2021/11/07 07:12:13;;;;;;;5.27;3.53;;;8.70;60.30;;;;;;5032033;28;20371;-50
2021/11/07 07:15:23;;;;;;;5.00;3.97;;;8.70;60.50;;;;;;5029180;28;20391;-52
2021/11/07 07:35:41;;;;;;;6.43;5.03;;;8.80;61.20;;;;;;5031557;28;20042;-56
2021/11/07 07:38:06;;;;;;;6.23;5.20;;;8.70;60.70;;;;;;5031085;28;20030;-57
2021/11/07 07:40:32;;;;;;;6.77;5.40;;;8.70;60.00;;;;;;5031548;28;20053;-55
2021/11/07 07:42:58;;;;;;;5.13;4.60;;;8.80;61.10;;;;;;5032068;28;20084;-51
2021/11/07 07:45:24;;;;;;;7.80;5.53;;;8.70;59.50;;;;;;5036123;28;20025;-54
2021/11/07 07:47:49;;;;;;;6.00;5.30;;;8.70;60.50;;;;;;5043034;28;20034;-52
2021/11/07 07:50:18;;;;;;;6.63;5.30;;;8.70;60.50;;;;;;5034241;28;20112;-50
2021/11/07 07:52:44;;;;;;;7.50;5.63;;;8.90;61.30;;;;;;5033551;28;20021;-51
2021/11/07 07:55:11;;;;;;;7.20;5.70;;;8.80;60.50;;;;;;5030591;28;20028;-52
2021/11/07 07:57:39;;;;;;;6.10;5.40;;;9.00;61.40;;;;;;5031591;28;20029;-50
2021/11/07 08:00:10;;;;;;;6.73;6.03;;;9.10;60.90;;;;;;5033001;28;20103;-55
2021/11/07 08:02:36;;;;;;;9.27;5.77;;;9.10;58.80;;;;;;5026316;28;20030;-51
2021/11/07 08:05:02;;;;;;;9.47;6.20;;;9.10;59.00;;;;;;5028578;28;20730;-56
2021/11/07 08:07:28;;;;;;;10.30;6.40;;;9.10;58.70;;;;;;5032009;28;20079;-54
2021/11/07 08:09:55;;;;;;;9.60;7.03;;;9.20;60.50;;;;;;5029835;28;20022;-56
2021/11/07 08:12:21;;;;;;;8.37;6.30;;;9.20;58.70;;;;;;5030495;28;20048;-53
2021/11/07 08:14:47;;;;;;;7.97;5.30;;;9.20;57.70;;;;;;5029757;28;20030;-52
2021/11/07 08:17:13;;;;;;;6.03;5.43;;;9.30;59.10;;;;;;5030582;28;20025;-52
2021/11/07 08:19:40;;;;;;;8.20;5.67;;;9.20;58.40;;;;;;5026764;28;20025;-52
2021/11/07 08:22:07;;;;;;;6.97;5.60;;;9.30;57.20;;;;;;5031037;28;20145;-51
2021/11/07 08:24:35;;;;;;;6.83;5.70;;;9.30;59.20;;;;;;5029395;28;20025;-52
2021/11/07 08:27:01;;;;;;;8.87;5.97;;;9.40;59.20;;;;;;5029218;28;20029;-51
2021/11/07 08:29:27;;;;;;;8.03;6.30;;;9.50;60.10;;;;;;5030099;28;20034;-52
2021/11/07 08:31:52;;;;;;;6.43;5.80;;;9.50;59.40;;;;;;5031100;28;20490;-56
2021/11/07 08:34:57;;;;;;;11.87;6.83;;;9.60;57.30;;;;;;5046810;28;20106;-55
2021/11/07 08:37:31;;;;;;;10.00;6.40;;;9.60;56.60;;;;;;5028841;28;20479;-53
2021/11/07 08:39:59;;;;;;;9.00;6.32;;;9.70;57.90;;;;;;5030471;28;20045;-52
2021/11/07 09:06:47;;;;;;;13.27;7.97;;;10.10;58.20;;;;;;5025400;28;20033;-51
2021/11/07 09:09:14;;;;;;;10.27;6.90;;;10.20;56.90;;;;;;5029055;28;20022;-52
2021/11/07 09:11:54;;;;;;;10.77;7.15;;;10.20;57.50;;;;;;5035315;28;20038;-52
2021/11/07 09:14:37;;;;;;;10.70;7.23;;;10.20;57.70;;;;;;5030653;28;20021;-51
2021/11/07 09:17:10;;;;;;;10.97;8.00;;;10.20;56.60;;;;;;5042927;28;20041;-50
2021/11/07 09:19:38;;;;;;;12.90;7.47;;;10.20;56.40;;;;;;5029687;28;20125;-52
2021/11/07 09:22:14;;;;;;;9.93;7.47;;;10.20;56.10;;;;;;5024389;28;20041;-51
2021/11/07 09:24:51;;;;;;;12.00;7.13;;;10.30;56.70;;;;;;5030184;28;20112;-52
2021/11/07 09:32:37;;;;;;;13.07;7.78;;;10.40;54.90;;;;;;5032073;28;20087;-52
2021/11/07 09:40:06;;;;;;;15.03;7.90;;;10.70;52.90;;;;;;5033103;28;20060;-51
2021/11/07 09:42:39;;;;;;;11.32;7.47;;;10.70;53.20;;;;;;5029620;28;20042;-52
2021/11/07 09:45:13;;;;;;;13.25;7.28;;;10.70;55.20;;;;;;5030626;28;20021;-53
2021/11/07 09:47:43;;;;;;;12.30;8.45;;;10.80;54.90;;;;;;5028832;28;20033;-53
2021/11/07 09:50:12;;;;;;;12.13;8.30;;;10.80;54.40;;;;;;5029406;28;20060;-52
2021/11/07 09:52:43;;;;;;;10.65;7.70;;;10.80;55.50;;;;;;5029942;28;20075;-52
2021/11/07 09:55:09;;;;;;;13.45;7.75;;;10.80;54.30;;;;;;5029833;28;20034;-52
2021/11/07 09:57:36;;;;;;;11.15;7.68;;;10.80;51.40;;;;;;5028311;28;20041;-52
2021/11/07 10:00:09;;;;;;;12.98;8.38;;;10.90;50.40;;;;;;5028773;28;20025;-52
2021/11/07 10:02:35;;;;;;;11.25;7.38;;;10.90;53.90;;;;;;5025867;28;20132;-55
2021/11/07 10:05:02;;;;;;;11.32;8.07;;;11.00;53.80;;;;;;5020771;28;20112;-54
2021/11/07 10:07:33;;;;;;;11.30;7.82;;;11.00;54.40;;;;;;5028313;28;20495;-56
2021/11/07 10:10:05;;;;;;;12.27;8.48;;;11.00;53.90;;;;;;5025525;28;20475;-51
2021/11/07 10:12:47;;;;;;;16.67;8.10;;;11.10;53.40;;;;;;5030194;28;20033;-54
2021/11/07 10:15:28;;;;;;;13.85;9.57;;;11.10;55.10;;;;;;5033733;28;20067;-53
2021/11/07 10:18:15;;;;;;;12.63;8.95;;;11.10;54.50;;;;;;5031476;28;20108;-54
2021/11/07 10:20:45;;;;;;;14.45;9.35;;;11.20;52.60;;;;;;5023218;28;20028;-52
2021/11/07 10:23:23;;;;;;;13.18;8.85;;;11.20;53.00;;;;;;5032497;28;20128;-53
2021/11/07 10:26:02;;;;;;;15.10;9.07;;;11.30;52.20;;;;;;5033308;28;21799;-51
2021/11/07 10:28:37;;;;;;;14.48;8.85;;;11.40;54.00;;;;;;5032351;28;20021;-51
2021/11/07 10:31:17;;;;;;;13.10;8.45;;;11.50;53.10;;;;;;5031022;28;20057;-55
2021/11/07 10:42:05;;;;;;;13.43;8.73;;;11.60;52.10;;;;;;5030135;28;20471;-52
2021/11/07 10:52:37;;;;;;;13.32;8.23;;;11.70;52.00;;;;;;5033819;28;20415;-52
2021/11/07 10:55:23;;;;;;;11.98;7.97;;;11.70;52.90;;;;;;5034039;28;20569;-54
2021/11/07 10:57:55;;;;;;;12.30;7.78;;;11.80;51.80;;;;;;5033641;28;20025;-51
2021/11/07 11:00:31;;;;;;;10.93;7.68;;;11.90;49.30;;;;;;5034460;28;20032;-52
2021/11/07 11:03:16;;;;;;;13.10;8.52;;;11.90;50.70;;;;;;5030482;28;20463;-52
2021/11/07 11:05:50;;;;;;;11.90;8.10;;;11.90;52.10;;;;;;5034266;28;20196;-51
2021/11/07 11:08:42;;;;;;;14.15;8.15;;;12.10;52.50;;;;;;5030246;28;20368;-51
2021/11/07 11:11:25;;;;;;;10.50;7.40;;;12.10;52.90;;;;;;5046042;28;20509;-52
2021/11/07 11:13:59;;;;;;;11.40;7.47;;;12.10;55.20;;;;;;5033303;28;20022;-51
2021/11/07 11:16:43;;;;;;;11.57;7.22;;;12.10;59.30;;;;;;5031908;28;20206;-51
2021/11/07 11:19:46;;;;;;;11.15;8.45;;;12.10;57.80;;;;;;5030476;28;20066;-55
2021/11/07 11:22:43;;;;;;;13.32;8.43;;;12.20;57.20;;;;;;5044036;28;20497;-54
2021/11/07 11:25:25;;;;;;;13.27;7.70;;;12.20;55.50;;;;;;5029368;28;20028;-52
2021/11/07 11:35:23;;;;;;;12.25;6.97;;;12.30;57.30;;;;;;5033207;28;20483;-51
2021/11/07 11:40:35;;;;;;;11.90;7.50;;;12.50;57.90;;;;;;5035011;28;20220;-50
2021/11/07 11:43:08;;;;;;;11.70;7.95;;;12.60;57.70;;;;;;5031085;28;20044;-52
2021/11/07 11:45:38;;;;;;;11.23;7.93;;;12.50;63.70;;;;;;5033771;28;20026;-51
2021/11/07 11:51:25;;;;;;;15.50;8.98;;;12.60;64.10;;;;;;5041579;28;20040;-52
2021/11/07 11:54:59;;;;;;;12.25;8.05;;;12.70;67.50;;;;;;5033817;28;20053;-50
2021/11/07 12:03:21;;;;;;;12.23;7.78;;;12.80;68.60;;;;;;5030934;28;20051;-52
2021/11/07 12:11:02;;;;;;;12.38;8.15;;;13.00;59.10;;;;;;5032904;28;20125;-55
2021/11/07 12:13:43;;;;;;;13.32;7.88;;;;;;;;;;5043952;28;20033;-50
2021/11/07 12:16:22;;;;;;;10.02;6.70;;;13.20;66.30;;;;;;5050527;28;20056;-52
2021/11/07 12:19:09;;;;;;;12.93;8.70;;;13.00;85.50;;;;;;5045504;28;20037;-55
2021/11/07 12:21:57;;;;;;;14.43;8.27;;;13.10;68.30;;;;;;5042672;28;20033;-53
2021/11/07 12:24:32;;;;;;;14.20;7.50;;;13.00;82.80;;;;;;5032788;28;20491;-51
2021/11/07 12:27:27;;;;;;;11.15;7.47;;;13.20;78.10;;;;;;5047794;28;20052;-52
2021/11/07 12:30:15;;;;;;;10.93;7.22;;;13.40;67.00;;;;;;5035393;28;20036;-51
2021/11/07 12:32:43;;;;;;;9.23;6.10;;;13.40;64.10;;;;;;5032602;28;20033;-53
2021/11/07 12:35:27;;;;;;;10.52;7.10;;;13.50;51.70;;;;;;5038143;28;20036;-51
2021/11/07 12:41:11;;;;;;;8.95;5.95;;;13.50;48.20;;;;;;5008821;28;20432;-54
2021/11/07 12:43:50;;;;;;;8.88;5.25;;;13.60;44.70;;;;;;5030531;28;20494;-52
2021/11/07 12:48:53;;;;;;;11.75;6.22;;;13.50;43.70;;;;;;5028162;28;20033;-52
2021/11/07 12:51:22;;;;;;;11.93;5.97;;;13.50;41.80;;;;;;5024303;28;20021;-50
2021/11/07 12:54:13;;;;;;;8.05;5.57;;;13.50;42.10;;;;;;5032828;28;20433;-53
2021/11/07 12:56:52;;;;;;;9.48;5.13;;;13.50;40.10;;;;;;5051659;28;20132;-55
2021/11/07 12:59:20;;;;;;;10.00;5.85;;;13.40;39.40;;;;;;5030528;28;20037;-51
2021/11/07 13:02:08;;;;;;;7.75;5.00;;;13.40;41.90;;;;;;5013090;28;20091;-50
2021/11/07 13:04:56;;;;;;;7.70;5.25;;;13.40;41.60;;;;;;5019412;28;20041;-50
2021/11/07 13:07:28;;;;;;;8.15;5.00;;;13.40;42.40;;;;;;5032465;28;20033;-49
2021/11/07 13:09:59;;;;;;;9.90;5.78;;;13.40;41.50;;;;;;5030235;28;20033;-49
2021/11/07 13:12:38;;;;;;;8.40;5.13;;;13.50;41.60;;;;;;5030925;28;20112;-49
2021/11/07 13:15:19;;;;;;;7.55;5.10;;;13.50;43.50;;;;;;5034701;28;20025;-53
2021/11/07 13:23:47;;;;;;;8.60;5.43;;;13.60;42.40;;;;;;5030237;28;20045;-51
2021/11/07 13:34:31;;;;;;;8.65;4.97;;;13.70;41.00;;;;;;5030388;28;20045;-54
2021/11/07 13:36:59;;;;;;;9.70;4.90;;;13.70;42.70;;;;;;5041819;28;20032;-54
2021/11/07 13:39:31;;;;;;;6.45;5.05;;;13.70;42.10;;;;;;5043953;28;20053;-54
2021/11/07 13:42:07;;;;;;;7.15;4.97;;;13.70;41.70;;;;;;5052218;28;20055;-53
2021/11/07 13:44:43;;;;;;;7.63;5.15;;;13.80;39.10;;;;;;5032590;28;20437;-53
2021/11/07 13:47:08;;;;;;;7.65;4.65;;;13.80;37.20;;;;;;5032656;28;20391;-51
2021/11/07 13:49:47;;;;;;;4.93;4.32;;;13.70;39.60;;;;;;5034187;28;20032;-51
2021/11/07 13:52:13;;;;;;;5.80;4.78;;;13.70;39.20;;;;;;5055235;28;20025;-55
2021/11/07 13:54:53;;;;;;;5.80;4.70;;;13.70;39.70;;;;;;5037013;28;20021;-54
2021/11/07 13:57:26;;;;;;;5.80;4.63;;;13.60;40.10;;;;;;5044088;28;20021;-53
2021/11/07 13:59:53;;;;;;;8.57;5.18;;;13.60;39.80;;;;;;5034660;28;20112;-54
2021/11/07 14:02:25;;;;;;;6.63;5.00;;;13.60;41.80;;;;;;5035437;28;20036;-51
2021/11/07 14:04:56;;;;;;;6.93;5.43;;;13.60;42.80;;;;;;5021461;28;20092;-52
2021/11/07 14:07:29;;;;;;;6.88;5.40;;;13.60;39.90;;;;;;5047485;28;20037;-51
2021/11/07 14:09:54;;;;;;;6.97;5.15;;;13.70;40.70;;;;;;5033634;28;20111;-51
2021/11/07 14:12:41;;;;;;;7.50;5.05;;;13.80;40.10;;;;;;5034264;28;20025;-52
2021/11/07 14:15:06;;;;;;;10.23;5.78;;;13.90;40.50;;;;;;5040962;28;20475;-55
2021/11/07 14:17:32;;;;;;;7.25;5.32;;;13.80;39.20;;;;;;5031832;28;20030;-54
2021/11/07 14:19:58;;;;;;;8.20;5.47;;;13.80;39.80;;;;;;5034003;28;20033;-51
2021/11/07 14:22:23;;;;;;;6.78;4.75;;;13.70;39.70;;;;;;5036099;28;20116;-52
2021/11/07 14:24:50;;;;;;;10.60;5.88;;;13.70;40.40;;;;;;5033824;28;20026;-51
2021/11/07 14:27:29;;;;;;;7.82;5.70;;;13.70;41.30;;;;;;5040365;28;20079;-54
2021/11/07 14:30:06;;;;;;;6.82;6.07;;;13.60;40.90;;;;;;5020355;28;20017;-55
2021/11/07 14:32:36;;;;;;;9.07;6.75;;;13.70;41.50;;;;;;5035501;28;20124;-52
2021/11/07 14:35:18;;;;;;;8.85;6.50;;;13.60;43.20;;;;;;5018768;28;20065;-53
2021/11/07 14:43:19;;;;;;;6.18;5.07;;;13.60;42.90;;;;;;5034593;28;20063;-53
2021/11/07 14:46:35;;;;;;;9.57;5.70;;;13.60;40.40;;;;;;5035544;28;20439;-53
2021/11/07 14:59:43;;;;;;;6.75;4.90;;;13.60;43.70;;;;;;5032172;28;20033;-56
2021/11/07 15:07:53;;;;;;;9.05;6.28;;;13.40;44.50;;;;;;5044630;28;20030;-53
2021/11/07 15:13:41;;;;;;;8.00;6.35;;;13.40;44.00;;;;;;5032365;28;20025;-52
2021/11/07 15:21:58;;;;;;;7.38;5.38;;;13.30;43.90;;;;;;5035598;28;20499;-54
2021/11/07 15:24:47;;;;;;;8.15;6.30;;;13.30;42.30;;;;;;5034751;28;20116;-51
2021/11/07 15:27:21;;;;;;;9.35;6.55;;;13.20;43.80;;;;;;5030639;28;20025;-54
2021/11/07 15:30:03;;;;;;;9.07;5.17;;;13.20;45.50;;;;;;5034463;28;20037;-49
2021/11/07 15:32:37;;;;;;;8.65;5.80;;;13.10;45.10;;;;;;5017243;28;20343;-50
2021/11/07 15:35:18;;;;;;;6.80;5.43;;;13.10;45.10;;;;;;5014885;28;20053;-52
2021/11/07 15:37:44;;;;;;;7.25;6.25;;;13.10;46.60;;;;;;5026785;28;20033;-51
2021/11/07 15:40:31;;;;;;;10.27;7.68;;;13.00;47.50;;;;;;5031917;28;20040;-51
2021/11/07 15:42:57;;;;;;;9.63;7.82;;;13.00;50.00;;;;;;5059990;28;20041;-51
2021/11/07 15:45:24;;;;;;;9.70;7.50;;;12.90;50.50;;;;;;5049367;28;20059;-51
2021/11/07 15:47:59;;;;;;;7.97;6.72;;;12.90;50.70;;;;;;5021791;28;20040;-50
2021/11/07 15:53:47;;;;;;;10.45;8.07;;;12.80;51.90;;;;;;5032534;28;20116;-51
2021/11/07 15:55:52;;;;;;;11.18;9.18;;;12.80;52.40;;;;;;5028331;28;20053;-49
2021/11/07 15:59:07;;;;;;;12.27;9.15;;;12.80;52.70;;;;;;5033678;28;20021;-51
2021/11/07 16:07:21;;;;;;;11.45;9.63;;;12.60;55.10;;;;;;5016308;28;20041;-51
2021/11/07 16:12:24;;;;;;;11.63;9.73;;;12.60;55.90;;;;;;5032872;28;20044;-49